Endicott, Virginia
Current Conditions -  °F | °C
As of 6:55 PM on Wednesday 22 Oct 2014 (Local Time) from KMTV Reporting Station
Clear Clear  
Wind Chill: 52°   Ceiling: Unl
Heat Index: 52°   Visibility: 10mi
Dew Point: 41°   Wind: 8mph
Humidity: 65%   Direction: 320°NW
Pressure: 30.08"   Gusts: NA
Location:  36.9002°N, 80.0779°W
Report Text: KMTV 222255Z AUTO 32007KT 10SM CLR 11/05 A3008 RMK AO2 T01130050
Loading
Personal Weather Stations






























Interactive Weather Map
Tropical Storm Tracking
New forecast layout! Learn more

10-Day Weather Forecast

Advertisements
Track Severe Weather on mobile